Strona główna
METAR-TAF:

METAR-TAF

Lotnisko :

Port lotniczy Sion

Sion, Szwajcaria

Szerokość geograficzna: 46-13N, Długość geograficzna: 007-20E, wysokość: 482 m

Aktualna obserwacja pogody

Raport powstał 23 minut temu, godzina 06:50 UTC
Wiatr 4 kt od wschód, zmienny między północny wschód i wschodnio-południowy wschód
Temperatura 16°C
Wilgotność 51%
Ciśnienie 1028 hPa
Widzialność 10 km lub więcej
Brak chmur poniżej 1500 m i brak chmur cumulonimbus

METAR: LSGS 280650Z 08004KT 050V120 CAVOK 16/06 Q1028

czas: 09:13 (07:13 UTC)

Prognoza

Raport powstał 1 godzina i 48 minut temu, godzina 05:25 UTC
Prognoza ważna od 28 godzina 06 UTC do 28 godzina 15 UTC
Wiatr 3 kt z kierunków zmiennych
Widzialność 10 km lub więcej
Brak chmur poniżej 1500 m i brak chmur cumulonimbus
Stopniowe zmiany
od 28 godzina 10 UTC do 28 godzina 12 UTC
Wiatr 12 kt od zachodnio-południowy zachód
Widzialność 10 km lub więcej
Mało chmury na wysokości 9000 ft

TAF: LSGS 280525Z 2806/2815 VRB03KT CAVOK BECMG 2810/2812 25012KT 9999 FEW090

Obserwacja i prognoza pogody dla ponad 4000 lotnisk (raport METAR i TAF).

Dostępne stacje oznaczono żółtymi i czerwonymi punktami na mapie.

Najedź kursorem aby zobaczyć nazwę stacji.

Kliknij aby zobaczyć obserwacje i prognozy pogody.

Aby zmienić mapę: kliknij na zielony przycisk z czarnym krzyżykiem, aby powiększyć; na zielony przycisk z myślnikiem, aby pomniejszyć; na zielone strzałki, aby przejść do map sąsiednich.


METAR-TAF: